createdAt,value
2023-02-28T00:01:12.081Z,102184.06
2023-02-28T00:03:39.766Z,102187.31
2023-02-28T00:06:08.829Z,102189.19
2023-02-28T00:08:36.506Z,102188.91
2023-02-28T00:11:04.946Z,102192.00
2023-02-28T00:13:36.362Z,102191.06
2023-02-28T00:16:05.468Z,102194.66
2023-02-28T00:18:33.604Z,102192.22
2023-02-28T00:21:01.479Z,102188.06
2023-02-28T00:23:29.845Z,102190.66
2023-02-28T00:25:57.566Z,102188.91
2023-02-28T00:28:25.963Z,102188.25
2023-02-28T00:30:55.184Z,102191.47
2023-02-28T00:33:22.893Z,102191.84
2023-02-28T00:35:50.558Z,102190.13
2023-02-28T00:38:18.480Z,102185.91
2023-02-28T00:40:46.107Z,102184.31
2023-02-28T00:43:13.736Z,102186.13
2023-02-28T00:45:41.367Z,102183.03
2023-02-28T00:48:10.387Z,102182.06
2023-02-28T00:50:38.022Z,102175.13
2023-02-28T00:53:05.658Z,102170.44
2023-02-28T00:55:33.459Z,102176.44
2023-02-28T00:58:01.105Z,102178.34
2023-02-28T01:00:28.898Z,102178.59
2023-02-28T01:02:56.552Z,102181.22
2023-02-28T01:05:25.600Z,102170.66
2023-02-28T01:07:53.230Z,102173.97
2023-02-28T01:10:21.841Z,102168.72
2023-02-28T01:12:49.526Z,102173.38
2023-02-28T01:15:17.444Z,102180.16
2023-02-28T01:17:45.115Z,102171.31
2023-02-28T01:20:13.387Z,102176.56
2023-02-28T01:22:42.370Z,102172.16
2023-02-28T01:25:10.424Z,102170.91
2023-02-28T01:27:38.137Z,102167.13
2023-02-28T01:30:06.676Z,102165.66
2023-02-28T01:32:34.310Z,102177.63
2023-02-28T01:35:01.901Z,102166.63
2023-02-28T01:37:29.517Z,102162.88
2023-02-28T01:39:58.528Z,102166.84
2023-02-28T01:42:26.147Z,102155.56
2023-02-28T01:45:02.678Z,102153.66
2023-02-28T01:47:33.979Z,102150.38
2023-02-28T01:50:03.585Z,102145.31
2023-02-28T01:52:31.545Z,102149.78
2023-02-28T01:55:02.166Z,102144.53
2023-02-28T01:57:38.368Z,102148.56
2023-02-28T02:00:10.089Z,102145.38
2023-02-28T02:02:38.517Z,102156.47
2023-02-28T02:05:08.260Z,102152.25
2023-02-28T02:07:37.853Z,102148.69
2023-02-28T02:10:13.180Z,102150.41
2023-02-28T02:12:54.166Z,102147.56
2023-02-28T02:15:24.416Z,102140.53
2023-02-28T02:17:54.516Z,102144.38
2023-02-28T02:20:52.777Z,102135.19
2023-02-28T02:23:36.449Z,102140.03
2023-02-28T02:26:20.239Z,102144.06
2023-02-28T02:29:09.057Z,102144.00
2023-02-28T02:32:10.128Z,102141.16
2023-02-28T02:34:44.129Z,102146.97
2023-02-28T02:37:18.369Z,102143.41
2023-02-28T02:39:52.323Z,102150.88
2023-02-28T02:42:24.625Z,102137.69
2023-02-28T02:44:55.857Z,102144.72
2023-02-28T02:47:26.633Z,102147.88
2023-02-28T02:49:58.173Z,102152.09
2023-02-28T02:52:32.292Z,102147.88
2023-02-28T02:55:00.521Z,102153.81
2023-02-28T02:57:33.603Z,102160.03
2023-02-28T03:00:02.166Z,102157.41
2023-02-28T03:02:35.446Z,102159.44
2023-02-28T03:05:07.331Z,102161.31
2023-02-28T03:07:35.059Z,102166.41
2023-02-28T03:10:02.874Z,102165.78
2023-02-28T03:12:35.120Z,102168.41
2023-02-28T03:15:10.147Z,102153.03
2023-02-28T03:17:51.889Z,102167.50
2023-02-28T03:20:30.069Z,102159.38
2023-02-28T03:23:03.712Z,102150.00
2023-02-28T03:25:35.532Z,102151.78
2023-02-28T03:28:07.864Z,102154.72
2023-02-28T03:30:40.447Z,102163.34
2023-02-28T03:33:11.060Z,102150.50
2023-02-28T03:35:42.598Z,102166.59
2023-02-28T03:38:15.195Z,102175.53
2023-02-28T03:40:47.523Z,102172.75
2023-02-28T03:43:18.917Z,102174.63
2023-02-28T03:45:48.513Z,102165.19
2023-02-28T03:48:19.399Z,102170.41
2023-02-28T03:50:51.248Z,102170.06
2023-02-28T03:53:24.789Z,102169.81
2023-02-28T03:55:56.790Z,102168.63
2023-02-28T03:58:30.418Z,102167.06
2023-02-28T04:01:08.596Z,102167.00
2023-02-28T04:03:37.624Z,102160.75
2023-02-28T04:06:08.133Z,102157.16
2023-02-28T04:08:35.797Z,102155.41
2023-02-28T04:11:06.974Z,102155.78
2023-02-28T04:13:35.067Z,102158.78
2023-02-28T04:16:02.800Z,102158.78
2023-02-28T04:18:30.438Z,102160.31
2023-02-28T04:21:02.157Z,102154.91
2023-02-28T04:23:32.658Z,102161.81
2023-02-28T04:26:00.353Z,102150.94
2023-02-28T04:28:28.074Z,102172.25
2023-02-28T04:30:57.598Z,102166.56
2023-02-28T04:33:25.492Z,102163.81
2023-02-28T04:36:00.933Z,102152.34
2023-02-28T04:38:29.020Z,102156.94
2023-02-28T04:41:00.488Z,102157.16
2023-02-28T04:43:28.747Z,102154.91
2023-02-28T04:45:57.678Z,102165.56
2023-02-28T04:48:26.110Z,102165.78
2023-02-28T04:50:53.804Z,102167.78
2023-02-28T04:53:21.902Z,102159.78
2023-02-28T04:55:49.550Z,102160.97
2023-02-28T04:58:18.735Z,102161.41
2023-02-28T05:00:46.403Z,102170.72
2023-02-28T05:03:14.209Z,102175.09
2023-02-28T05:05:41.855Z,102176.81
2023-02-28T05:08:10.804Z,102170.56
2023-02-28T05:10:38.925Z,102172.25
2023-02-28T05:13:06.625Z,102177.19
2023-02-28T05:15:35.908Z,102174.72
2023-02-28T05:18:03.627Z,102174.88
2023-02-28T05:20:31.385Z,102171.88
2023-02-28T05:22:59.435Z,102167.78
2023-02-28T05:25:27.344Z,102164.84
2023-02-28T05:27:54.995Z,102175.06
2023-02-28T05:30:22.644Z,102177.50
2023-02-28T05:32:54.039Z,102184.94
2023-02-28T05:35:21.666Z,102182.81
2023-02-28T05:37:49.318Z,102182.84
2023-02-28T05:40:17.085Z,102197.38
2023-02-28T05:42:45.092Z,102200.56
2023-02-28T05:45:15.665Z,102206.81
2023-02-28T05:47:43.480Z,102207.84
2023-02-28T05:50:13.317Z,102205.59
2023-02-28T05:52:41.038Z,102202.28
2023-02-28T05:55:09.694Z,102198.72
2023-02-28T05:57:37.330Z,102192.97
2023-02-28T06:00:05.944Z,102197.88
2023-02-28T06:02:33.673Z,102204.72
2023-02-28T06:05:01.360Z,102202.44
2023-02-28T06:07:30.393Z,102202.28
2023-02-28T06:09:58.070Z,102197.88
2023-02-28T06:12:25.757Z,102191.31
2023-02-28T06:14:53.425Z,102194.41
2023-02-28T06:17:21.083Z,102193.66
2023-02-28T06:19:49.073Z,102200.41
2023-02-28T06:22:16.751Z,102198.22
2023-02-28T06:24:45.909Z,102197.19
2023-02-28T06:27:13.550Z,102192.31
2023-02-28T06:29:41.625Z,102192.81
2023-02-28T06:32:09.323Z,102187.72
2023-02-28T06:34:37.883Z,102193.06
2023-02-28T06:37:05.533Z,102201.94
2023-02-28T06:39:33.530Z,102201.78
2023-02-28T06:42:02.738Z,102209.28
2023-02-28T06:44:36.488Z,102215.03
2023-02-28T06:47:05.332Z,102214.78
2023-02-28T06:49:33.795Z,102209.59
2023-02-28T06:52:01.471Z,102212.91
2023-02-28T06:54:29.290Z,102214.25
2023-02-28T06:56:56.925Z,102218.63
2023-02-28T06:59:26.028Z,102226.56
2023-02-28T07:01:54.095Z,102223.06
2023-02-28T07:04:21.811Z,102229.34
2023-02-28T07:06:49.517Z,102229.41
2023-02-28T07:09:17.200Z,102232.47
2023-02-28T07:11:44.995Z,102218.81
2023-02-28T07:14:12.623Z,102229.53
2023-02-28T07:16:41.645Z,102229.63
2023-02-28T07:19:09.307Z,102225.31
2023-02-28T07:21:36.958Z,102223.06
2023-02-28T07:24:04.894Z,102228.03
2023-02-28T07:26:35.053Z,102227.75
2023-02-28T07:29:03.216Z,102227.56
2023-02-28T07:31:31.396Z,102225.41
2023-02-28T07:34:00.665Z,102216.47
2023-02-28T07:36:28.481Z,102226.47
2023-02-28T07:38:56.199Z,102232.63
2023-02-28T07:41:25.797Z,102234.88
2023-02-28T07:43:55.796Z,102232.44
2023-02-28T07:46:23.518Z,102237.75
2023-02-28T07:48:51.381Z,102234.09
2023-02-28T07:51:20.742Z,102235.84
2023-02-28T07:53:48.365Z,102233.97
2023-02-28T07:56:16.032Z,102224.03
2023-02-28T07:58:43.683Z,102235.19
2023-02-28T08:01:13.015Z,102233.66
2023-02-28T08:03:41.502Z,102233.56
2023-02-28T08:06:11.163Z,102236.50
2023-02-28T08:08:40.216Z,102239.69
2023-02-28T08:11:07.923Z,102240.63
2023-02-28T08:13:35.605Z,102242.44
2023-02-28T08:16:04.509Z,102248.09
2023-02-28T08:18:32.233Z,102244.09
2023-02-28T08:21:00.240Z,102252.31
2023-02-28T08:23:27.941Z,102242.09
2023-02-28T08:25:57.840Z,102245.13
2023-02-28T08:28:27.445Z,102240.28
2023-02-28T08:30:55.783Z,102244.72
2023-02-28T08:33:23.898Z,102251.38
2023-02-28T08:35:54.881Z,102256.97
2023-02-28T08:38:22.714Z,102253.25
2023-02-28T08:40:50.493Z,102250.31
2023-02-28T08:43:19.549Z,102250.19
2023-02-28T08:45:47.194Z,102241.72
2023-02-28T08:48:14.826Z,102242.53
2023-02-28T08:50:43.077Z,102244.97
2023-02-28T08:53:11.621Z,102229.63
2023-02-28T08:55:39.283Z,102241.22
2023-02-28T08:58:06.892Z,102235.44
2023-02-28T09:00:37.662Z,102242.34
2023-02-28T09:03:06.552Z,102241.22
2023-02-28T09:05:34.208Z,102233.47
2023-02-28T09:08:01.807Z,102244.91
2023-02-28T09:10:29.497Z,102234.22
2023-02-28T09:12:57.284Z,102245.69
2023-02-28T09:15:24.990Z,102241.22
2023-02-28T09:17:54.064Z,102253.00
2023-02-28T09:20:21.836Z,102240.69
2023-02-28T09:22:49.653Z,102236.13
2023-02-28T09:25:17.659Z,102249.81
2023-02-28T09:27:46.567Z,102234.22
2023-02-28T09:30:15.549Z,102237.59
2023-02-28T09:32:43.451Z,102228.47
2023-02-28T09:35:15.468Z,102224.72
2023-02-28T09:37:43.159Z,102223.34
2023-02-28T09:40:12.255Z,102233.09
2023-02-28T09:42:41.281Z,102231.50
2023-02-28T09:45:26.758Z,102225.19
2023-02-28T09:47:57.015Z,102227.19
2023-02-28T09:50:34.000Z,102245.22
2023-02-28T09:53:04.565Z,102227.47
2023-02-28T09:55:41.624Z,102232.25
2023-02-28T09:58:20.870Z,102233.41
2023-02-28T10:00:53.671Z,102221.75
2023-02-28T10:03:28.395Z,102248.63
2023-02-28T10:06:04.648Z,102238.41
2023-02-28T10:08:36.079Z,102227.72
2023-02-28T10:11:05.594Z,102218.56
2023-02-28T10:13:37.030Z,102244.03
2023-02-28T10:16:08.400Z,102239.91
2023-02-28T10:18:45.212Z,102239.31
2023-02-28T10:21:21.213Z,102243.94
2023-02-28T10:23:50.046Z,102214.41
2023-02-28T10:26:19.895Z,102245.50
2023-02-28T10:28:47.830Z,102237.22
2023-02-28T10:31:18.859Z,102235.34
2023-02-28T10:33:46.860Z,102257.50
2023-02-28T10:36:18.402Z,102231.38
2023-02-28T10:38:47.583Z,102213.66
2023-02-28T10:41:17.357Z,102232.25
2023-02-28T10:43:46.203Z,102234.13
2023-02-28T10:46:27.271Z,102240.66
2023-02-28T10:49:04.967Z,102247.63
2023-02-28T10:51:42.342Z,102213.00
2023-02-28T10:54:17.730Z,102237.00
2023-02-28T10:56:45.580Z,102211.22
2023-02-28T10:59:29.873Z,102205.91
2023-02-28T11:01:57.920Z,102212.34
2023-02-28T11:04:39.963Z,102231.78
2023-02-28T11:07:21.604Z,102203.66
2023-02-28T11:09:53.017Z,102189.88
2023-02-28T11:12:26.567Z,102195.31
2023-02-28T11:14:57.403Z,102200.78
2023-02-28T11:17:27.423Z,102214.72
2023-02-28T11:19:57.581Z,102213.03
2023-02-28T11:22:29.830Z,102197.53
2023-02-28T11:25:01.207Z,102207.19
2023-02-28T11:27:47.926Z,102196.00
2023-02-28T11:30:26.663Z,102201.25
2023-02-28T11:32:54.550Z,102185.09
2023-02-28T11:35:27.039Z,102221.88
2023-02-28T11:37:59.759Z,102227.59
2023-02-28T11:40:33.976Z,102208.44
2023-02-28T11:43:11.131Z,102183.75
2023-02-28T11:45:47.112Z,102207.13
2023-02-28T11:48:20.996Z,102206.34
2023-02-28T11:50:58.384Z,102216.63
2023-02-28T11:53:42.162Z,102187.19
2023-02-28T11:56:13.478Z,102189.28
2023-02-28T11:58:50.547Z,102175.22
2023-02-28T12:01:26.945Z,102171.09
2023-02-28T12:04:01.929Z,102170.75
2023-02-28T12:06:35.259Z,102194.00
2023-02-28T12:09:16.073Z,102182.75
2023-02-28T12:11:54.419Z,102164.13
2023-02-28T12:14:49.185Z,102159.66
2023-02-28T12:17:26.393Z,102169.72
2023-02-28T12:20:01.144Z,102185.31
2023-02-28T12:22:33.054Z,102164.47
2023-02-28T12:25:18.799Z,102165.94
2023-02-28T12:27:48.892Z,102176.13
2023-02-28T12:30:19.908Z,102157.22
2023-02-28T12:32:49.736Z,102144.00
2023-02-28T12:35:20.645Z,102147.94
2023-02-28T12:37:53.004Z,102148.41
2023-02-28T12:40:23.865Z,102149.72
2023-02-28T12:42:54.195Z,102167.75
2023-02-28T12:45:23.239Z,102141.81
2023-02-28T12:47:53.614Z,102153.94
2023-02-28T12:50:22.249Z,102127.72
2023-02-28T12:52:54.463Z,102112.28
2023-02-28T12:55:28.288Z,102122.03
2023-02-28T12:58:03.929Z,102112.53
2023-02-28T13:00:36.853Z,102099.00
2023-02-28T13:03:19.754Z,102110.22
2023-02-28T13:06:05.744Z,102101.88
2023-02-28T13:08:49.880Z,102076.44
2023-02-28T13:11:28.085Z,102107.22
2023-02-28T13:14:01.218Z,102093.41
2023-02-28T13:16:29.057Z,102101.41
2023-02-28T13:19:11.446Z,102092.84
2023-02-28T13:21:46.184Z,102089.03
2023-02-28T13:24:47.504Z,102100.34
2023-02-28T13:27:40.021Z,102096.78
2023-02-28T13:30:45.086Z,102099.66
2023-02-28T13:33:28.274Z,102073.38
2023-02-28T13:36:09.550Z,102084.38
2023-02-28T13:38:43.317Z,102069.22
2023-02-28T13:41:46.233Z,102069.41
2023-02-28T13:44:17.422Z,102074.41
2023-02-28T13:47:26.852Z,102074.91
2023-02-28T13:49:55.334Z,102067.19
2023-02-28T13:52:26.394Z,102080.44
2023-02-28T13:55:17.241Z,102079.16
2023-02-28T13:57:56.367Z,102070.91
2023-02-28T14:00:38.036Z,102099.97
2023-02-28T14:03:14.096Z,102089.22
2023-02-28T14:05:42.277Z,102101.31
2023-02-28T14:08:16.554Z,102068.56
2023-02-28T14:10:46.660Z,102061.47
2023-02-28T14:13:32.138Z,102088.09
2023-02-28T14:16:02.616Z,102071.22
2023-02-28T14:18:33.608Z,102080.97
2023-02-28T14:21:13.514Z,102073.66
2023-02-28T14:24:12.258Z,102063.41
2023-02-28T14:26:58.412Z,102073.66
2023-02-28T14:29:36.541Z,102075.75
2023-02-28T14:32:08.790Z,102059.38
2023-02-28T14:34:45.105Z,102073.00
2023-02-28T14:37:17.817Z,102073.69
2023-02-28T14:39:46.045Z,102072.22
2023-02-28T14:42:34.230Z,102051.44
2023-02-28T14:45:03.000Z,102065.44
2023-02-28T14:47:34.244Z,102053.06
2023-02-28T14:50:04.936Z,102068.88
2023-02-28T14:52:33.853Z,102068.41
2023-02-28T14:55:03.259Z,102062.34
2023-02-28T14:57:33.179Z,102053.97
2023-02-28T15:00:05.260Z,102046.84
2023-02-28T15:02:36.901Z,102043.38
2023-02-28T15:05:21.722Z,102059.00
2023-02-28T15:07:50.945Z,102060.53
2023-02-28T15:10:20.918Z,102075.78
2023-02-28T15:12:54.816Z,102065.44
2023-02-28T15:15:31.760Z,102056.31
2023-02-28T15:18:10.633Z,102046.75
2023-02-28T15:20:41.179Z,102039.47
2023-02-28T15:23:08.952Z,102042.28
2023-02-28T15:25:36.904Z,102051.53
2023-02-28T15:28:04.872Z,102066.41
2023-02-28T15:30:33.685Z,102071.06
2023-02-28T15:33:12.476Z,102078.38
2023-02-28T15:35:40.512Z,102088.75
2023-02-28T15:38:18.019Z,102080.72
2023-02-28T15:40:54.773Z,102069.63
2023-02-28T15:43:28.718Z,102077.53
2023-02-28T15:46:00.358Z,102089.44
2023-02-28T15:48:31.629Z,102099.38
2023-02-28T15:51:04.542Z,102089.69
2023-02-28T15:53:34.636Z,102081.22
2023-02-28T15:56:04.219Z,102094.53
2023-02-28T15:58:32.755Z,102094.06
2023-02-28T16:01:17.548Z,102078.09
2023-02-28T16:03:48.722Z,102085.88
2023-02-28T16:06:36.498Z,102080.84
2023-02-28T16:09:05.413Z,102082.72
2023-02-28T16:11:35.138Z,102090.44
2023-02-28T16:14:04.094Z,102089.19
2023-02-28T16:16:33.257Z,102085.53
2023-02-28T16:19:02.326Z,102069.84
2023-02-28T16:21:30.303Z,102095.91
2023-02-28T16:23:58.224Z,102081.09
2023-02-28T16:26:28.427Z,102089.88
2023-02-28T16:28:56.794Z,102096.97
2023-02-28T16:31:24.544Z,102089.25
2023-02-28T16:33:52.291Z,102091.88
2023-02-28T16:36:24.177Z,102080.59
2023-02-28T16:38:51.846Z,102090.94
2023-02-28T16:41:21.548Z,102092.63
2023-02-28T16:43:50.772Z,102097.72
2023-02-28T16:46:19.205Z,102100.78
2023-02-28T16:48:47.950Z,102097.09
2023-02-28T16:51:16.575Z,102098.78
2023-02-28T16:53:46.252Z,102089.09
2023-02-28T16:56:17.543Z,102095.84
2023-02-28T16:58:45.398Z,102099.28
2023-02-28T17:01:13.309Z,102105.88
2023-02-28T17:03:41.324Z,102104.50
2023-02-28T17:06:19.243Z,102096.25
2023-02-28T17:08:48.351Z,102103.16
2023-02-28T17:11:16.097Z,102101.47
2023-02-28T17:13:43.722Z,102094.69
2023-02-28T17:16:20.415Z,102096.09
2023-02-28T17:18:48.105Z,102089.13
2023-02-28T17:21:16.558Z,102110.16
2023-02-28T17:23:44.354Z,102103.81
2023-02-28T17:26:16.457Z,102099.13
2023-02-28T17:28:44.107Z,102097.72
2023-02-28T17:31:11.838Z,102112.13
2023-02-28T17:33:39.600Z,102106.16
2023-02-28T17:36:08.617Z,102102.06
2023-02-28T17:38:36.299Z,102113.53
2023-02-28T17:41:03.975Z,102115.44
2023-02-28T17:43:33.035Z,102119.78
2023-02-28T17:46:00.692Z,102112.28
2023-02-28T17:48:28.636Z,102113.00
2023-02-28T17:50:56.455Z,102119.63
2023-02-28T17:53:24.488Z,102120.09
2023-02-28T17:55:52.228Z,102116.81
2023-02-28T17:58:20.569Z,102113.41
2023-02-28T18:00:54.659Z,102121.31
2023-02-28T18:03:23.169Z,102118.44
2023-02-28T18:05:51.058Z,102121.59
2023-02-28T18:08:19.190Z,102128.56
2023-02-28T18:10:47.299Z,102134.34
2023-02-28T18:13:15.095Z,102132.97
2023-02-28T18:15:42.727Z,102126.06
2023-02-28T18:18:11.914Z,102127.16
2023-02-28T18:20:39.541Z,102130.53
2023-02-28T18:23:07.236Z,102143.88
2023-02-28T18:25:34.983Z,102137.09
2023-02-28T18:28:02.732Z,102134.84
2023-02-28T18:30:32.999Z,102123.66
2023-02-28T18:33:01.702Z,102123.94
2023-02-28T18:35:39.556Z,102109.09
2023-02-28T18:38:10.255Z,102108.72
2023-02-28T18:40:38.040Z,102111.66
2023-02-28T18:43:06.075Z,102118.38
2023-02-28T18:45:36.978Z,102113.41
2023-02-28T18:48:04.646Z,102113.44
2023-02-28T18:50:33.790Z,102120.53
2023-02-28T18:53:03.336Z,102120.59
2023-02-28T18:55:32.995Z,102134.81
2023-02-28T18:58:00.742Z,102135.22
2023-02-28T19:00:28.620Z,102146.03
2023-02-28T19:02:56.481Z,102148.28
2023-02-28T19:05:24.421Z,102145.03
2023-02-28T19:07:53.541Z,102142.53
2023-02-28T19:10:21.391Z,102137.69
2023-02-28T19:12:49.173Z,102132.84
2023-02-28T19:15:16.924Z,102135.03
2023-02-28T19:17:46.564Z,102139.78
2023-02-28T19:20:14.993Z,102133.66
2023-02-28T19:22:44.274Z,102147.16
2023-02-28T19:25:13.590Z,102136.63
2023-02-28T19:27:41.217Z,102130.75
2023-02-28T19:30:10.241Z,102128.84
2023-02-28T19:32:38.390Z,102126.03
2023-02-28T19:35:06.587Z,102131.16
2023-02-28T19:37:34.212Z,102138.34
2023-02-28T19:40:02.565Z,102122.53
2023-02-28T19:42:33.331Z,102126.97
2023-02-28T19:45:01.447Z,102124.19
2023-02-28T19:47:30.736Z,102123.16
2023-02-28T19:49:58.464Z,102132.63
2023-02-28T19:52:26.339Z,102121.88
2023-02-28T19:54:54.081Z,102128.19
2023-02-28T19:57:21.778Z,102126.94
2023-02-28T19:59:51.983Z,102143.38
2023-02-28T20:02:21.491Z,102143.78
2023-02-28T20:04:49.901Z,102158.28
2023-02-28T20:07:17.876Z,102159.31
2023-02-28T20:09:45.887Z,102163.06
2023-02-28T20:12:23.581Z,102167.06
2023-02-28T20:14:56.003Z,102168.75
2023-02-28T20:17:24.129Z,102151.22
2023-02-28T20:19:51.758Z,102145.72
2023-02-28T20:22:19.417Z,102143.38
2023-02-28T20:24:48.090Z,102155.41
2023-02-28T20:27:15.872Z,102148.59
2023-02-28T20:29:43.629Z,102151.72
2023-02-28T20:32:13.236Z,102148.97
2023-02-28T20:34:41.042Z,102146.69
2023-02-28T20:37:08.721Z,102142.25
2023-02-28T20:39:36.450Z,102139.09
2023-02-28T20:42:04.646Z,102139.66
2023-02-28T20:44:32.262Z,102150.56
2023-02-28T20:47:00.804Z,102152.28
2023-02-28T20:49:30.212Z,102151.97
2023-02-28T20:51:57.847Z,102170.31
2023-02-28T20:54:25.753Z,102173.50
2023-02-28T20:56:53.572Z,102171.34
2023-02-28T20:59:22.300Z,102176.25
2023-02-28T21:01:50.219Z,102183.31
2023-02-28T21:04:17.990Z,102178.38
2023-02-28T21:06:47.601Z,102175.00
2023-02-28T21:09:16.155Z,102175.03
2023-02-28T21:11:43.813Z,102166.56
2023-02-28T21:14:14.833Z,102168.00
2023-02-28T21:16:44.335Z,102177.22
2023-02-28T21:19:12.487Z,102182.84
2023-02-28T21:21:44.016Z,102187.47
2023-02-28T21:24:14.203Z,102186.16
2023-02-28T21:26:42.911Z,102178.00
2023-02-28T21:29:10.549Z,102175.81
2023-02-28T21:31:39.183Z,102181.84
2023-02-28T21:34:09.459Z,102189.94
2023-02-28T21:36:39.659Z,102200.34
2023-02-28T21:39:09.812Z,102194.25
2023-02-28T21:41:39.093Z,102185.72
2023-02-28T21:44:07.064Z,102185.97
2023-02-28T21:46:35.336Z,102184.00
2023-02-28T21:49:03.151Z,102202.69
2023-02-28T21:51:32.225Z,102198.56
2023-02-28T21:54:01.140Z,102193.63
2023-02-28T21:56:32.587Z,102189.97
2023-02-28T21:59:02.167Z,102189.31
2023-02-28T22:01:31.376Z,102179.25
2023-02-28T22:04:00.083Z,102172.38
2023-02-28T22:06:29.711Z,102166.09
2023-02-28T22:08:59.763Z,102169.69
2023-02-28T22:11:27.473Z,102168.72
2023-02-28T22:13:56.330Z,102161.22
2023-02-28T22:16:28.146Z,102174.94
2023-02-28T22:18:57.092Z,102165.75
2023-02-28T22:21:26.126Z,102175.72
2023-02-28T22:23:53.999Z,102162.88
2023-02-28T22:26:23.145Z,102158.22
2023-02-28T22:28:51.510Z,102156.00
2023-02-28T22:31:20.642Z,102153.81
2023-02-28T22:33:50.120Z,102148.47
2023-02-28T22:36:19.983Z,102155.06
2023-02-28T22:38:48.963Z,102166.13
2023-02-28T22:41:16.639Z,102177.19
2023-02-28T22:43:44.684Z,102179.72
2023-02-28T22:46:14.210Z,102186.47
2023-02-28T22:48:43.835Z,102187.88
2023-02-28T22:51:15.047Z,102183.47
2023-02-28T22:53:44.540Z,102191.75
2023-02-28T22:56:13.817Z,102180.75
2023-02-28T22:58:41.823Z,102181.81
2023-02-28T23:01:11.437Z,102190.50
2023-02-28T23:03:40.115Z,102187.69
2023-02-28T23:06:15.281Z,102183.75
2023-02-28T23:08:43.595Z,102195.00
2023-02-28T23:11:12.087Z,102190.72
2023-02-28T23:13:39.744Z,102190.50
2023-02-28T23:16:08.485Z,102195.94
2023-02-28T23:18:36.380Z,102191.44
2023-02-28T23:21:04.129Z,102206.53
2023-02-28T23:23:33.360Z,102183.94
2023-02-28T23:26:01.019Z,102190.44
2023-02-28T23:28:28.700Z,102174.97
2023-02-28T23:30:56.372Z,102169.50
2023-02-28T23:33:26.360Z,102189.47
2023-02-28T23:35:54.175Z,102194.44
2023-02-28T23:38:22.138Z,102196.31
2023-02-28T23:40:51.194Z,102189.88
2023-02-28T23:43:19.622Z,102183.13
2023-02-28T23:45:56.083Z,102183.25
2023-02-28T23:48:24.187Z,102188.41
2023-02-28T23:50:51.979Z,102198.28
2023-02-28T23:53:19.812Z,102186.34
2023-02-28T23:55:48.444Z,102183.25
2023-02-28T23:58:17.635Z,102176.75
